Time;durP1;ratioP1;P1;durP2;ratioP2;P2;SDS_P1;SDS_P2;PMS_P1;PMS_P2;Temp;Humidity;BMP_temperature;BMP_pressure;BME280_temperature;BME280_humidity;BME280_pressure;Samples;Min_cycle;Max_cycle;Signal;HPM_P1;HPM_P2
2022/08/23 00:02:44;;;;;;;8.70;5.20;;;;;;;19.48;94.57;98315.50;433213;1269;108837;-39
2022/08/23 00:12:52;;;;;;;7.20;4.80;;;;;;;19.25;94.37;98316.81;432960;1270;97503;-39
2022/08/23 00:22:59;;;;;;;8.10;5.40;;;;;;;19.14;94.38;98317.90;433282;1269;111010;-39
2022/08/23 00:33:07;;;;;;;15.60;9.50;;;;;;;19.05;94.53;98273.98;433264;1270;108795;-39
2022/08/23 00:53:46;;;;;;;17.00;15.30;;;;;;;18.96;94.93;98278.11;432658;1269;109258;-39
2022/08/23 01:03:57;;;;;;;21.50;15.50;;;;;;;18.93;95.13;98277.02;432784;1270;97402;-39
2022/08/23 01:14:16;;;;;;;21.30;16.80;;;;;;;18.94;95.27;98265.33;433721;1259;111103;-38
2022/08/23 01:24:24;;;;;;;22.50;17.30;;;;;;;18.92;95.35;98264.50;432587;1269;109168;-41
2022/08/23 01:34:51;;;;;;;19.40;17.30;;;;;;;18.89;95.67;98259.77;433160;1270;97490;-40
2022/08/23 01:55:03;;;;;;;18.40;16.50;;;;;;;18.84;95.99;98250.80;432628;1269;97895;-40
2022/08/23 02:05:11;;;;;;;17.80;13.40;;;;;;;18.81;96.05;98241.23;432734;1269;111290;-37
2022/08/23 02:15:18;;;;;;;18.50;13.60;;;;;;;18.75;96.26;98238.69;432981;1269;108856;-40
2022/08/23 02:25:25;;;;;;;16.40;13.70;;;;;;;18.72;96.18;98252.30;433313;1269;97501;-39
2022/08/23 02:45:40;;;;;;;11.40;10.20;;;;;;;18.66;96.36;98259.59;432852;1270;97911;-39
2022/08/23 02:55:48;;;;;;;10.20;9.20;;;;;;;18.54;96.84;98256.82;433336;1269;111008;-39
2022/08/23 03:05:55;;;;;;;10.00;9.00;;;;;;;18.51;96.68;98255.52;433015;1269;108830;-39
2022/08/23 03:16:23;;;;;;;10.00;9.00;;;;;;;18.50;96.63;98265.07;432946;1269;98212;-39
2022/08/23 03:26:31;;;;;;;8.20;6.60;;;;;;;18.45;96.57;98277.29;432819;1270;108727;-38
2022/08/23 03:36:38;;;;;;;11.20;7.20;;;;;;;18.38;96.70;98285.45;432579;1269;97901;-39
2022/08/23 03:46:46;;;;;;;9.50;6.50;;;;;;;18.37;96.68;98285.09;432754;1270;109500;-40
2022/08/23 04:07:01;;;;;;;7.20;6.20;;;;;;;18.32;96.82;98298.55;433593;1269;97487;-39
2022/08/23 04:17:08;;;;;;;7.70;6.40;;;;;;;18.35;96.90;98301.88;433364;1270;109084;-40
2022/08/23 04:27:14;;;;;;;7.50;6.20;;;;;;;18.38;96.90;98306.02;433152;1269;97468;-39
2022/08/23 04:37:22;;;;;;;7.20;5.90;;;;;;;18.40;96.88;98302.88;433229;1270;111078;-39
2022/08/23 04:47:29;;;;;;;9.40;6.80;;;;;;;18.50;96.69;98315.88;433236;1270;108746;-38
2022/08/23 05:07:42;;;;;;;8.10;6.60;;;;;;;18.78;96.80;98333.35;433196;1269;108552;-39
2022/08/23 05:17:50;;;;;;;13.60;8.30;;;;;;;18.95;96.78;98336.15;432707;1270;97927;-41
2022/08/23 05:27:57;;;;;;;10.90;9.10;;;;;;;19.13;96.38;98345.30;433173;1268;111054;-40
2022/08/23 05:38:04;;;;;;;12.20;10.30;;;;;;;19.12;96.30;98358.29;433219;1269;108872;-42
2022/08/23 05:48:12;;;;;;;16.50;11.10;;;;;;;19.11;96.52;98362.65;433440;1270;97316;-39
2022/08/23 05:58:24;;;;;;;27.60;13.30;;;;;;;19.25;96.65;98357.66;433341;1269;109237;-39
2022/08/23 06:08:31;;;;;;;16.20;13.50;;;;;;;19.33;96.48;98366.54;432148;1270;1480620;-40
2022/08/23 06:18:37;;;;;;;18.60;13.00;;;;;;;19.37;96.63;98373.71;432979;1269;110942;-41
2022/08/23 06:28:47;;;;;;;20.80;15.10;;;;;;;19.60;96.78;98378.66;432562;1269;108547;-41
2022/08/23 06:38:57;;;;;;;21.50;16.60;;;;;;;19.85;96.82;98388.49;433490;1269;97897;-41
2022/08/23 06:49:05;;;;;;;24.70;18.10;;;;;;;20.16;96.73;98390.80;433177;1269;109489;-41
2022/08/23 06:59:12;;;;;;;18.90;16.00;;;;;;;20.16;96.20;98399.41;433536;1269;97478;-42
2022/08/23 07:09:20;;;;;;;28.20;16.70;;;;;;;20.11;96.31;98407.38;433671;1267;111151;-39
2022/08/23 07:19:30;;;;;;;21.90;18.20;;;;;;;20.15;96.28;98413.71;432640;1270;109383;-38
2022/08/23 07:29:35;;;;;;;29.70;17.70;;;;;;;20.33;96.64;98412.66;433274;1270;97923;-38
2022/08/23 07:39:42;;;;;;;28.40;17.90;;;;;;;20.57;96.27;98410.80;433379;1269;108855;-38
2022/08/23 07:59:57;;;;;;;26.60;19.90;;;;;;;20.94;95.97;98414.87;433124;1269;111203;-39
2022/08/23 08:10:03;;;;;;;30.50;24.40;;;;;;;21.12;95.56;98420.86;433161;1268;107692;-39
2022/08/23 08:20:12;;;;;;;33.40;27.10;;;;;;;21.03;95.18;98430.48;433458;1269;97503;-40
2022/08/23 08:30:17;;;;;;;;;;;;;;;21.01;95.21;98436.15;433426;1268;108928;-42
2022/08/23 08:40:23;;;;;;;27.80;23.70;;;;;;;21.17;95.13;98441.61;433117;1269;97878;-40
2022/08/23 08:50:36;;;;;;;41.20;25.50;;;;;;;21.24;95.15;98458.09;433694;1270;111327;-40
2022/08/23 09:00:45;;;;;;;37.00;25.40;;;;;;;21.36;94.78;98473.01;432655;1270;107011;-41
2022/08/23 09:21:00;;;;;;;37.30;25.70;;;;;;;21.59;94.25;98485.88;433358;1269;108539;-38
2022/08/23 09:31:08;;;;;;;33.50;25.00;;;;;;;22.16;94.23;98480.73;433234;1270;97894;-39
2022/08/23 09:51:24;;;;;;;34.60;25.00;;;;;;;22.96;93.68;98485.71;433591;1269;108678;-40
2022/08/23 10:01:35;;;;;;;42.30;27.70;;;;;;;23.28;92.99;98489.68;432778;1268;97560;-41
2022/08/23 10:11:46;;;;;;;32.70;26.00;;;;;;;23.48;92.30;98499.40;432731;1270;111025;-41
2022/08/23 10:21:52;;;;;;;28.70;24.20;;;;;;;23.56;91.84;98497.41;433485;1269;108876;-41
2022/08/23 10:42:03;;;;;;;31.70;23.70;;;;;;;24.17;90.93;98507.02;433624;1270;108885;-42
2022/08/23 10:52:15;;;;;;;26.70;20.10;;;;;;;24.11;89.94;98508.30;433519;1270;108983;-41
2022/08/23 11:02:20;;;;;;;26.70;19.90;;;;;;;24.26;89.90;98505.92;433290;1270;97902;-41
2022/08/23 11:12:29;;;;;;;26.90;21.30;;;;;;;24.33;89.44;98512.02;433472;1268;108915;-41
2022/08/23 11:23:13;;;;;;;27.40;20.70;;;;;;;24.00;88.77;98513.30;432997;1269;97881;-40
2022/08/23 11:33:20;;;;;;;26.10;20.10;;;;;;;24.09;88.97;98518.63;433362;1270;97872;-40
2022/08/23 11:43:32;;;;;;;25.30;21.60;;;;;;;24.55;88.68;98516.11;433261;1269;109121;-40
2022/08/23 11:54:00;;;;;;;27.90;21.40;;;;;;;24.96;87.87;98511.66;433086;1269;98173;-40
2022/08/23 12:04:13;;;;;;;30.10;22.60;;;;;;;25.45;86.93;98508.29;433749;1269;97026;-40
2022/08/23 12:24:46;;;;;;;24.10;20.60;;;;;;;25.26;85.39;98520.24;433354;1269;108852;-40
2022/08/23 12:45:12;;;;;;;23.70;21.10;;;;;;;25.70;85.14;98510.92;433291;1269;111034;-39
2022/08/23 12:55:20;;;;;;;28.50;21.50;;;;;;;25.75;83.72;98510.70;433287;1269;108842;-40
2022/08/23 13:05:30;;;;;;;24.40;18.90;;;;;;;25.36;83.13;98506.56;433119;1269;97518;-39
2022/08/23 13:15:42;;;;;;;27.30;18.00;;;;;;;25.27;82.93;98509.00;433098;1269;111233;-39
2022/08/23 13:25:50;;;;;;;30.80;21.90;;;;;;;24.97;82.47;98511.00;433095;1269;109056;-40
2022/08/23 13:36:06;;;;;;;25.80;22.50;;;;;;;24.65;82.81;98512.58;433114;1270;97845;-39
2022/08/23 13:46:22;;;;;;;28.30;21.30;;;;;;;24.42;83.47;98507.55;433419;1269;111591;-39
2022/08/23 13:56:34;;;;;;;34.20;23.30;;;;;;;24.32;83.98;98504.89;433028;1270;109486;-39
2022/08/23 14:06:40;;;;;;;26.70;21.40;;;;;;;24.34;84.41;98507.21;433233;1269;97467;-40
2022/08/23 14:16:55;;;;;;;28.70;21.50;;;;;;;24.23;84.14;98507.83;432549;1269;108797;-39
2022/08/23 14:27:10;;;;;;;29.10;22.60;;;;;;;24.10;84.22;98522.92;432970;1270;96665;-39
2022/08/23 14:37:17;;;;;;;29.40;22.30;;;;;;;23.86;84.34;98524.29;432423;1269;111268;-39
2022/08/23 14:47:43;;;;;;;;;;;;;;;23.73;85.33;98523.31;433144;1270;109032;-39
2022/08/23 14:57:50;;;;;;;28.30;22.40;;;;;;;23.83;85.84;98522.38;433270;1270;98216;-39
2022/08/23 15:07:56;;;;;;;;;;;;;;;23.81;85.97;98545.03;433215;1269;108690;-39
2022/08/23 15:18:03;;;;;;;37.30;26.80;;;;;;;23.64;86.32;98545.75;433428;1269;97887;-40
2022/08/23 15:28:15;;;;;;;39.30;26.40;;;;;;;23.49;86.31;98550.46;433431;1269;111211;-39
2022/08/23 15:38:25;;;;;;;23.80;20.20;;;;;;;23.33;86.47;98560.23;432916;1269;108822;-41
2022/08/23 15:48:34;;;;;;;26.20;19.10;;;;;;;22.78;85.90;98571.35;433126;1268;97897;-39
2022/08/23 15:58:41;;;;;;;25.10;18.30;;;;;;;22.29;86.15;98577.83;433288;1269;109408;-39
2022/08/23 16:08:53;;;;;;;20.60;18.20;;;;;;;22.06;86.57;98572.15;433180;1270;98233;-38
2022/08/23 16:19:00;;;;;;;25.10;17.20;;;;;;;21.93;86.76;98565.00;433421;1269;111219;-40
2022/08/23 16:29:12;;;;;;;20.00;16.30;;;;;;;21.96;86.92;98569.70;433217;1269;109350;-39
2022/08/23 16:39:19;;;;;;;15.50;13.90;;;;;;;21.93;87.14;98566.08;433519;1270;97476;-39
2022/08/23 16:49:26;;;;;;;20.40;15.10;;;;;;;21.96;87.02;98573.81;433278;1269;108768;-39
2022/08/23 16:59:34;;;;;;;19.30;14.60;;;;;;;21.86;87.05;98581.10;433029;1270;97930;-39
2022/08/23 17:19:53;;;;;;;17.80;14.80;;;;;;;21.63;87.50;98618.54;433318;1270;108815;-39
2022/08/23 17:30:00;;;;;;;23.40;17.50;;;;;;;21.54;88.05;98646.92;433386;1270;97883;-39
2022/08/23 17:40:12;;;;;;;26.50;19.30;;;;;;;21.45;88.15;98669.69;432999;1270;109113;-40
2022/08/23 18:10:36;;;;;;;35.60;25.80;;;;;;;21.01;88.30;98671.70;432179;1271;1542666;-39
2022/08/23 18:20:44;;;;;;;35.60;26.70;;;;;;;20.79;88.60;98684.83;433156;1269;97004;-39
2022/08/23 18:40:59;;;;;;;34.30;25.20;;;;;;;20.59;89.06;98703.39;433364;1270;97525;-39
2022/08/23 18:51:06;;;;;;;35.30;26.30;;;;;;;20.51;89.13;98712.61;433071;1271;110977;-39
2022/08/23 19:01:22;;;;;;;46.20;29.80;;;;;;;20.45;89.42;98728.63;433378;1270;108779;-39
2022/08/23 19:11:30;;;;;;;39.90;26.90;;;;;;;20.43;89.73;98747.28;433225;1271;97919;-39
2022/08/23 19:21:36;;;;;;;;;;;;;;;20.46;89.86;98738.80;432870;1269;108871;-39
2022/08/23 19:31:46;;;;;;;39.90;25.80;;;;;;;20.42;89.97;98745.48;432856;1271;97490;-39
2022/08/23 20:02:04;;;;;;;36.80;25.80;;;;;;;20.23;90.10;98758.91;433244;1270;97878;-38
2022/08/23 20:12:12;;;;;;;36.90;25.80;;;;;;;20.18;90.38;98764.10;433122;1271;109229;-38
2022/08/23 20:32:44;;;;;;;36.70;24.90;;;;;;;20.21;90.81;98773.50;432620;1270;109777;-42
2022/08/23 20:42:52;;;;;;;39.30;24.40;;;;;;;20.17;90.72;98776.19;432909;1269;109018;-39
2022/08/23 20:52:59;;;;;;;35.80;23.70;;;;;;;20.07;90.80;98783.71;433717;1270;97897;-39
2022/08/23 21:03:06;;;;;;;35.60;25.20;;;;;;;20.06;90.92;98769.79;433541;1271;108843;-39
2022/08/23 21:13:13;;;;;;;33.10;23.80;;;;;;;19.88;90.79;98771.73;432875;1269;97550;-39
2022/08/23 21:23:20;;;;;;;28.50;23.40;;;;;;;19.91;91.16;98766.11;432810;1270;111404;-39
2022/08/23 21:33:27;;;;;;;39.30;25.50;;;;;;;19.97;91.40;98779.29;432859;1270;108991;-41
2022/08/23 21:53:41;;;;;;;40.60;25.40;;;;;;;20.07;91.41;98767.13;433146;1269;107845;-39
2022/08/23 22:03:49;;;;;;;36.10;27.30;;;;;;;20.07;91.64;98767.02;432913;1270;97897;-39
2022/08/23 22:14:02;;;;;;;36.10;25.40;;;;;;;20.07;91.77;98771.91;433010;1269;111170;-39
2022/08/23 22:34:16;;;;;;;34.20;23.60;;;;;;;20.10;91.91;98769.41;432627;1269;97550;-40
2022/08/23 22:44:24;;;;;;;30.50;23.40;;;;;;;20.09;91.90;98761.89;432631;1269;107837;-40
2022/08/23 22:54:31;;;;;;;29.10;23.20;;;;;;;20.11;92.10;98762.84;432650;1270;97910;-40
2022/08/23 23:04:38;;;;;;;30.40;23.50;;;;;;;20.11;92.13;98764.79;432809;1269;111717;-40
2022/08/23 23:14:45;;;;;;;36.40;23.60;;;;;;;20.18;92.30;98762.53;432815;1269;109180;-40
2022/08/23 23:24:53;;;;;;;31.30;23.00;;;;;;;20.18;92.22;98765.77;433194;1269;96669;-39
2022/08/23 23:35:00;;;;;;;25.30;22.00;;;;;;;20.15;92.26;98772.14;432934;1269;109277;-39
2022/08/23 23:45:10;;;;;;;34.60;24.40;;;;;;;20.10;92.38;98786.58;433040;1270;97271;-43
2022/08/23 23:55:20;;;;;;;26.00;22.00;;;;;;;20.09;92.40;98789.38;433096;1269;111228;-40
